Hancock, Wisconsin
Current Conditions -  °F | °C
As of 3:56 AM on Saturday 25 Oct 2014 (Local Time) from KY50 Reporting Station
Haze Haze  
Wind Chill: 56°   Ceiling: 100
Heat Index: 56°   Visibility: 5mi
Dew Point: 54°   Wind: 8mph
Humidity: 93%   Direction: 280°W
Pressure: 29.86"   Gusts: NA
Location:  44.13°N, 89.52°W
Report Text: KY50 250856Z AUTO 28007KT 5SM BR BKN001 OVC009 13/12 A2986 RMK AO2 TSNO 53003 T01330122 SLP109
Loading
Personal Weather Stations






























Interactive Weather Map
Tropical Storm Tracking
New forecast layout! Learn more

10-Day Weather Forecast

Advertisements
Track Severe Weather on mobile